createdAt,value
2023-03-06T00:01:32.363Z,1.63
2023-03-06T00:06:37.556Z,5.03
2023-03-06T00:11:42.803Z,2.00
2023-03-06T00:16:47.961Z,2.17
2023-03-06T00:21:53.123Z,5.03
2023-03-06T00:26:58.331Z,4.53
2023-03-06T00:32:04.610Z,5.03
2023-03-06T00:37:09.876Z,3.77
2023-03-06T00:42:15.056Z,4.77
2023-03-06T00:47:20.087Z,3.70
2023-03-06T00:52:25.375Z,1.23
2023-03-06T00:57:30.546Z,1.77
2023-03-06T01:02:37.888Z,5.80
2023-03-06T01:07:43.930Z,4.03
2023-03-06T01:12:49.130Z,1.73
2023-03-06T01:17:57.565Z,2.07
2023-03-06T01:23:02.756Z,3.30
2023-03-06T01:28:07.886Z,2.97
2023-03-06T01:33:13.572Z,3.77
2023-03-06T01:38:18.840Z,6.10
2023-03-06T01:43:30.134Z,1.63
2023-03-06T01:48:35.387Z,1.00
2023-03-06T01:53:43.579Z,6.53
2023-03-06T01:58:49.878Z,2.70
2023-03-06T02:03:56.411Z,1.73
2023-03-06T02:09:01.518Z,1.70
2023-03-06T02:14:06.820Z,2.10
2023-03-06T02:19:18.077Z,6.80
2023-03-06T02:24:34.714Z,4.60
2023-03-06T02:29:39.832Z,1.67
2023-03-06T02:34:53.857Z,2.73
2023-03-06T02:40:02.022Z,6.00
2023-03-06T02:45:10.165Z,2.60
2023-03-06T02:50:15.403Z,3.13
2023-03-06T02:55:20.641Z,3.17
2023-03-06T03:00:25.797Z,4.03
2023-03-06T03:05:31.010Z,2.20
2023-03-06T03:10:36.159Z,2.97
2023-03-06T03:15:41.442Z,3.40
2023-03-06T03:20:46.962Z,2.73
2023-03-06T03:25:52.796Z,1.47
2023-03-06T03:30:57.831Z,5.10
2023-03-06T03:36:05.766Z,2.93
2023-03-06T03:41:10.940Z,3.20
2023-03-06T03:46:16.240Z,3.40
2023-03-06T03:51:21.530Z,15.97
2023-03-06T03:56:27.655Z,7.43
2023-03-06T04:01:32.922Z,1.93
2023-03-06T04:06:38.099Z,3.33
2023-03-06T04:11:43.220Z,4.17
2023-03-06T04:16:48.307Z,2.83
2023-03-06T04:21:53.424Z,0.83
2023-03-06T04:26:58.579Z,12.37
2023-03-06T04:32:04.181Z,5.03
2023-03-06T04:37:11.838Z,3.33
2023-03-06T04:42:17.289Z,2.67
2023-03-06T04:47:22.444Z,2.90
2023-03-06T04:52:27.530Z,3.47
2023-03-06T04:57:32.663Z,12.37
2023-03-06T05:02:37.970Z,9.67
2023-03-06T05:07:43.705Z,6.30
2023-03-06T05:12:49.142Z,6.70
2023-03-06T05:17:54.244Z,7.53
2023-03-06T05:22:59.714Z,7.93
2023-03-06T05:28:04.806Z,12.13
2023-03-06T05:33:09.939Z,6.87
2023-03-06T05:38:16.667Z,7.00
2023-03-06T05:43:21.997Z,2.20
2023-03-06T05:48:27.127Z,7.00
2023-03-06T05:53:33.333Z,14.97
2023-03-06T05:58:39.236Z,8.03
2023-03-06T06:03:44.920Z,5.70
2023-03-06T06:08:50.650Z,6.07
2023-03-06T06:13:55.643Z,16.70
2023-03-06T06:19:00.736Z,15.83
2023-03-06T06:24:06.015Z,16.47
2023-03-06T06:29:12.182Z,15.33
2023-03-06T06:34:18.663Z,12.17
2023-03-06T06:39:26.013Z,11.47
2023-03-06T06:44:31.136Z,4.60
2023-03-06T06:49:39.675Z,11.90
2023-03-06T06:54:44.954Z,6.10
2023-03-06T06:59:52.430Z,11.47
2023-03-06T07:05:04.340Z,19.17
2023-03-06T07:10:06.905Z,8.60
2023-03-06T07:15:15.361Z,20.10
2023-03-06T07:20:21.417Z,14.70
2023-03-06T07:25:26.680Z,9.87
2023-03-06T07:30:32.114Z,6.27
2023-03-06T07:35:37.600Z,23.70
2023-03-06T07:40:43.112Z,20.03
2023-03-06T07:45:49.982Z,29.90
2023-03-06T07:51:01.086Z,20.27
2023-03-06T07:56:08.778Z,15.63
2023-03-06T08:01:17.443Z,10.17
2023-03-06T08:06:27.918Z,16.00
2023-03-06T08:11:34.200Z,19.93
2023-03-06T08:16:39.502Z,16.00
2023-03-06T08:21:44.684Z,26.67
2023-03-06T08:26:54.905Z,30.50
2023-03-06T08:32:00.295Z,17.70
2023-03-06T08:37:05.840Z,31.77
2023-03-06T08:42:12.715Z,28.63
2023-03-06T08:47:18.143Z,22.13
2023-03-06T08:52:23.182Z,24.07
2023-03-06T08:57:28.322Z,13.23
2023-03-06T09:02:33.896Z,16.33
2023-03-06T09:07:39.153Z,10.63
2023-03-06T09:12:50.901Z,13.27
2023-03-06T09:17:54.455Z,24.63
2023-03-06T09:23:00.011Z,19.03
2023-03-06T09:28:11.793Z,24.53
2023-03-06T09:33:12.394Z,18.80
2023-03-06T09:38:18.580Z,16.63
2023-03-06T09:43:35.976Z,19.03
2023-03-06T09:48:44.248Z,12.60
2023-03-06T09:54:01.386Z,14.67
2023-03-06T09:59:24.816Z,19.87
2023-03-06T10:04:44.513Z,11.90
2023-03-06T10:10:04.525Z,27.17
2023-03-06T10:15:18.546Z,20.53
2023-03-06T10:20:29.944Z,13.47
2023-03-06T10:25:41.071Z,22.37
2023-03-06T10:31:01.474Z,22.90
2023-03-06T10:36:06.925Z,16.87
2023-03-06T10:41:20.931Z,19.67
2023-03-06T10:46:42.973Z,13.47
2023-03-06T10:52:12.308Z,15.70
2023-03-06T10:57:32.031Z,14.70
2023-03-06T11:02:41.319Z,23.50
2023-03-06T11:08:01.015Z,18.37
2023-03-06T11:13:10.657Z,30.20
2023-03-06T11:18:19.920Z,42.53
2023-03-06T11:23:40.290Z,17.43
2023-03-06T11:28:54.515Z,12.83
2023-03-06T11:34:19.780Z,6.37
2023-03-06T11:39:31.187Z,19.03
2023-03-06T11:44:45.419Z,14.33
2023-03-06T11:49:53.738Z,16.10
2023-03-06T11:54:59.703Z,11.63
2023-03-06T12:00:19.780Z,11.13
2023-03-06T12:05:42.601Z,8.93
2023-03-06T12:10:51.930Z,16.77
2023-03-06T12:16:15.878Z,9.30
2023-03-06T12:21:33.174Z,12.73
2023-03-06T12:27:04.186Z,8.00
2023-03-06T12:32:38.393Z,10.00
2023-03-06T12:38:10.736Z,7.63
2023-03-06T12:43:40.182Z,5.87
2023-03-06T12:48:52.003Z,9.10
2023-03-06T12:53:59.958Z,17.23
2023-03-06T12:59:06.200Z,6.93
2023-03-06T13:04:46.032Z,8.53
2023-03-06T13:09:56.874Z,8.67
2023-03-06T13:15:04.314Z,9.13
2023-03-06T13:20:20.465Z,12.47
2023-03-06T13:25:35.302Z,10.63
2023-03-06T13:30:45.972Z,8.60
2023-03-06T13:35:54.860Z,6.50
2023-03-06T13:41:25.859Z,9.83
2023-03-06T13:46:35.497Z,9.83
2023-03-06T13:51:44.981Z,7.57
2023-03-06T13:57:02.843Z,7.73
2023-03-06T14:02:37.131Z,10.13
2023-03-06T14:07:45.306Z,8.60
2023-03-06T14:12:53.538Z,10.17
2023-03-06T14:18:07.710Z,6.30
2023-03-06T14:23:37.519Z,15.37
2023-03-06T14:28:45.322Z,10.73
2023-03-06T14:33:59.179Z,12.03
2023-03-06T14:39:07.700Z,13.37
2023-03-06T14:44:26.772Z,16.37
2023-03-06T14:49:32.024Z,7.83
2023-03-06T14:54:37.935Z,21.37
2023-03-06T14:59:46.613Z,16.63
2023-03-06T15:04:58.395Z,20.13
2023-03-06T15:10:05.536Z,21.93
2023-03-06T15:15:13.731Z,54.43
2023-03-06T15:20:44.417Z,26.83
2023-03-06T15:26:00.968Z,32.13
2023-03-06T15:31:23.536Z,16.43
2023-03-06T15:36:48.243Z,16.83
2023-03-06T15:42:19.250Z,55.67
2023-03-06T15:47:25.027Z,33.30
2023-03-06T15:52:30.598Z,38.70
2023-03-06T15:57:35.900Z,17.57
2023-03-06T16:02:41.356Z,19.97
2023-03-06T16:07:47.166Z,29.17
2023-03-06T16:13:04.516Z,27.17
2023-03-06T16:18:12.557Z,44.87
2023-03-06T16:23:17.952Z,29.60
2023-03-06T16:28:23.812Z,29.67
2023-03-06T16:33:28.902Z,49.43
2023-03-06T16:38:33.989Z,27.10
2023-03-06T16:43:39.287Z,22.70
2023-03-06T16:48:44.735Z,21.27
2023-03-06T16:53:58.574Z,62.53
2023-03-06T16:59:03.781Z,36.63
2023-03-06T17:04:09.247Z,37.37
2023-03-06T17:09:14.781Z,27.07
2023-03-06T17:14:20.143Z,55.53
2023-03-06T17:19:25.799Z,72.83
2023-03-06T17:24:30.962Z,86.80
2023-03-06T17:29:36.275Z,57.73
2023-03-06T17:34:41.711Z,53.37
2023-03-06T17:39:47.536Z,59.70
2023-03-06T17:44:53.527Z,69.23
2023-03-06T17:49:58.707Z,38.43
2023-03-06T17:55:04.550Z,18.13
2023-03-06T18:00:11.139Z,14.40
2023-03-06T18:05:18.862Z,28.10
2023-03-06T18:10:24.389Z,35.63
2023-03-06T18:15:29.454Z,23.37
2023-03-06T18:20:34.776Z,28.13
2023-03-06T18:25:40.023Z,22.20
2023-03-06T18:30:45.681Z,37.33
2023-03-06T18:35:52.255Z,16.03
2023-03-06T18:40:57.734Z,19.67
2023-03-06T18:46:03.595Z,29.40
2023-03-06T18:51:11.273Z,14.43
2023-03-06T18:56:19.370Z,29.37
2023-03-06T19:01:25.555Z,20.63
2023-03-06T19:06:31.799Z,17.27
2023-03-06T19:11:38.665Z,23.90
2023-03-06T19:16:43.941Z,28.33
2023-03-06T19:21:49.064Z,27.80
2023-03-06T19:26:54.163Z,11.10
2023-03-06T19:31:59.452Z,20.73
2023-03-06T19:37:04.562Z,16.50
2023-03-06T19:42:12.224Z,15.37
2023-03-06T19:47:16.914Z,22.90
2023-03-06T19:52:23.800Z,9.57
2023-03-06T19:57:28.879Z,13.00
2023-03-06T20:02:34.443Z,7.27
2023-03-06T20:07:39.717Z,8.00
2023-03-06T20:12:45.034Z,18.93
2023-03-06T20:17:50.253Z,9.97
2023-03-06T20:22:55.535Z,15.27
2023-03-06T20:28:00.977Z,8.43
2023-03-06T20:33:06.467Z,10.30
2023-03-06T20:38:12.862Z,14.07
2023-03-06T20:43:18.481Z,9.33
2023-03-06T20:48:23.795Z,3.93
2023-03-06T20:53:29.412Z,10.60
2023-03-06T20:58:34.578Z,7.83
2023-03-06T21:03:39.802Z,26.43
2023-03-06T21:08:45.627Z,13.87
2023-03-06T21:13:51.944Z,6.17
2023-03-06T21:18:58.898Z,23.30
2023-03-06T21:24:04.994Z,8.53
2023-03-06T21:29:10.260Z,9.20
2023-03-06T21:34:15.574Z,11.00
2023-03-06T21:39:21.907Z,18.20
2023-03-06T21:44:27.562Z,8.73
2023-03-06T21:49:32.863Z,8.13
2023-03-06T21:54:38.160Z,9.20
2023-03-06T21:59:43.455Z,15.00
2023-03-06T22:04:52.869Z,8.60
2023-03-06T22:09:58.042Z,5.43
2023-03-06T22:15:03.531Z,10.10
2023-03-06T22:20:10.067Z,9.23
2023-03-06T22:25:15.361Z,3.20
2023-03-06T22:30:20.667Z,4.73
2023-03-06T22:35:25.955Z,9.00
2023-03-06T22:40:31.617Z,3.90
2023-03-06T22:45:36.812Z,8.40
2023-03-06T22:50:42.164Z,13.33
2023-03-06T22:55:47.327Z,4.53
2023-03-06T23:00:52.661Z,5.37
2023-03-06T23:05:58.015Z,7.17
2023-03-06T23:11:06.141Z,15.40
2023-03-06T23:16:12.238Z,7.03
2023-03-06T23:21:19.671Z,5.53
2023-03-06T23:26:27.498Z,11.17
2023-03-06T23:31:33.098Z,5.73
2023-03-06T23:36:38.352Z,3.97
2023-03-06T23:41:44.035Z,8.40
2023-03-06T23:46:49.308Z,18.80
2023-03-06T23:51:54.622Z,8.20
2023-03-06T23:56:59.780Z,8.20
